sensor_id;sensor_type;location;lat;lon;timestamp;pressure;altitude;pressure_sealevel;temperature;humidity
47753;BME280;2038;51.728;6.674;2023-03-11T04:18:10;100114.66;;;2.52;100.00
47753;BME280;2038;51.728;6.674;2023-03-11T04:20:38;100119.28;;;2.48;100.00
47753;BME280;2038;51.728;6.674;2023-03-11T04:23:04;100113.75;;;2.52;100.00
47753;BME280;2038;51.728;6.674;2023-03-11T04:25:30;100123.06;;;2.53;100.00
47753;BME280;2038;51.728;6.674;2023-03-11T04:27:57;100129.34;;;2.48;100.00
47753;BME280;2038;51.728;6.674;2023-03-11T04:30:23;100130.41;;;2.41;100.00
47753;BME280;2038;51.728;6.674;2023-03-11T04:32:49;100129.94;;;2.45;100.00
47753;BME280;2038;51.728;6.674;2023-03-11T04:35:15;100130.16;;;2.38;100.00
47753;BME280;2038;51.728;6.674;2023-03-11T04:37:42;100131.78;;;2.38;100.00
47753;BME280;2038;51.728;6.674;2023-03-11T04:40:08;100128.19;;;2.25;100.00
47753;BME280;2038;51.728;6.674;2023-03-11T04:42:36;100134.84;;;2.25;100.00
47753;BME280;2038;51.728;6.674;2023-03-11T04:45:04;100130.19;;;2.19;100.00
47753;BME280;2038;51.728;6.674;2023-03-11T04:47:32;100137.00;;;2.20;100.00
47753;BME280;2038;51.728;6.674;2023-03-11T04:49:58;100141.06;;;2.10;100.00
47753;BME280;2038;51.728;6.674;2023-03-11T04:52:24;100142.16;;;2.03;100.00
47753;BME280;2038;51.728;6.674;2023-03-11T04:54:50;100139.84;;;1.96;100.00
47753;BME280;2038;51.728;6.674;2023-03-11T04:57:16;100150.59;;;2.04;100.00
47753;BME280;2038;51.728;6.674;2023-03-11T04:59:43;100145.72;;;1.97;100.00
47753;BME280;2038;51.728;6.674;2023-03-11T05:02:09;100153.28;;;1.97;100.00
47753;BME280;2038;51.728;6.674;2023-03-11T05:04:35;100162.09;;;2.02;100.00
47753;BME280;2038;51.728;6.674;2023-03-11T05:07:01;100164.88;;;2.05;100.00
47753;BME280;2038;51.728;6.674;2023-03-11T05:09:28;100155.47;;;2.02;100.00
47753;BME280;2038;51.728;6.674;2023-03-11T05:11:54;100156.59;;;2.06;100.00
47753;BME280;2038;51.728;6.674;2023-03-11T05:14:20;100163.66;;;2.10;100.00
47753;BME280;2038;51.728;6.674;2023-03-11T05:16:47;100169.66;;;2.02;100.00
47753;BME280;2038;51.728;6.674;2023-03-11T05:19:13;100166.25;;;2.01;100.00
47753;BME280;2038;51.728;6.674;2023-03-11T05:22:11;100165.25;;;1.99;100.00
47753;BME280;2038;51.728;6.674;2023-03-11T05:24:37;100164.22;;;1.97;100.00
47753;BME280;2038;51.728;6.674;2023-03-11T05:27:04;100165.56;;;1.94;100.00
47753;BME280;2038;51.728;6.674;2023-03-11T05:29:31;100170.59;;;1.94;100.00
47753;BME280;2038;51.728;6.674;2023-03-11T05:31:57;100172.44;;;1.86;100.00
47753;BME280;2038;51.728;6.674;2023-03-11T05:34:24;100165.47;;;1.92;100.00
47753;BME280;2038;51.728;6.674;2023-03-11T05:36:50;100181.00;;;1.88;100.00
47753;BME280;2038;51.728;6.674;2023-03-11T05:39:16;100182.47;;;1.86;100.00
47753;BME280;2038;51.728;6.674;2023-03-11T05:41:42;100187.09;;;1.81;100.00
47753;BME280;2038;51.728;6.674;2023-03-11T05:44:09;100185.34;;;1.80;100.00
47753;BME280;2038;51.728;6.674;2023-03-11T05:46:35;100188.78;;;1.72;100.00
47753;BME280;2038;51.728;6.674;2023-03-11T05:49:01;100184.88;;;1.84;100.00
47753;BME280;2038;51.728;6.674;2023-03-11T05:51:27;100184.72;;;1.83;100.00
47753;BME280;2038;51.728;6.674;2023-03-11T05:53:54;100181.06;;;1.79;100.00
47753;BME280;2038;51.728;6.674;2023-03-11T05:56:21;100183.75;;;1.72;100.00
47753;BME280;2038;51.728;6.674;2023-03-11T05:58:49;100192.63;;;1.69;100.00
47753;BME280;2038;51.728;6.674;2023-03-11T06:01:17;100187.75;;;1.70;100.00
47753;BME280;2038;51.728;6.674;2023-03-11T06:03:44;100190.53;;;1.73;100.00
47753;BME280;2038;51.728;6.674;2023-03-11T06:06:12;100190.25;;;1.70;100.00
47753;BME280;2038;51.728;6.674;2023-03-11T06:08:39;100190.00;;;1.67;100.00
47753;BME280;2038;51.728;6.674;2023-03-11T06:11:11;100201.19;;;1.71;100.00
47753;BME280;2038;51.728;6.674;2023-03-11T06:13:38;100199.16;;;1.67;100.00
47753;BME280;2038;51.728;6.674;2023-03-11T06:16:05;100213.78;;;1.62;100.00
47753;BME280;2038;51.728;6.674;2023-03-11T06:18:33;100207.75;;;1.60;100.00
47753;BME280;2038;51.728;6.674;2023-03-11T06:21:00;100208.03;;;1.63;100.00
47753;BME280;2038;51.728;6.674;2023-03-11T06:23:28;100216.72;;;1.67;100.00
47753;BME280;2038;51.728;6.674;2023-03-11T06:26:02;100214.94;;;1.66;100.00
47753;BME280;2038;51.728;6.674;2023-03-11T06:28:30;100225.94;;;1.58;100.00
47753;BME280;2038;51.728;6.674;2023-03-11T06:31:07;100226.19;;;1.61;100.00
47753;BME280;2038;51.728;6.674;2023-03-11T06:33:35;100238.91;;;1.62;100.00
47753;BME280;2038;51.728;6.674;2023-03-11T06:36:03;100243.06;;;1.53;100.00
47753;BME280;2038;51.728;6.674;2023-03-11T06:38:30;100247.56;;;1.47;100.00
47753;BME280;2038;51.728;6.674;2023-03-11T06:41:01;100242.81;;;1.50;100.00
47753;BME280;2038;51.728;6.674;2023-03-11T06:43:29;100242.63;;;1.57;100.00
47753;BME280;2038;51.728;6.674;2023-03-11T06:45:57;100257.38;;;1.63;100.00
47753;BME280;2038;51.728;6.674;2023-03-11T06:48:24;100250.50;;;1.52;100.00
47753;BME280;2038;51.728;6.674;2023-03-11T06:50:59;100257.88;;;1.50;100.00
47753;BME280;2038;51.728;6.674;2023-03-11T06:53:27;100254.91;;;1.54;100.00
47753;BME280;2038;51.728;6.674;2023-03-11T06:56:06;100265.56;;;1.52;100.00
47753;BME280;2038;51.728;6.674;2023-03-11T06:58:36;100277.94;;;1.50;100.00
47753;BME280;2038;51.728;6.674;2023-03-11T07:01:06;100281.31;;;1.59;100.00
47753;BME280;2038;51.728;6.674;2023-03-11T07:03:35;100288.22;;;1.70;100.00
47753;BME280;2038;51.728;6.674;2023-03-11T07:06:01;100288.38;;;1.72;100.00
47753;BME280;2038;51.728;6.674;2023-03-11T07:08:28;100288.03;;;1.77;100.00
47753;BME280;2038;51.728;6.674;2023-03-11T07:13:31;100297.19;;;1.77;100.00
47753;BME280;2038;51.728;6.674;2023-03-11T07:16:12;100300.09;;;1.90;100.00
47753;BME280;2038;51.728;6.674;2023-03-11T07:18:41;100306.41;;;1.95;100.00
47753;BME280;2038;51.728;6.674;2023-03-11T07:21:10;100313.53;;;1.91;100.00
47753;BME280;2038;51.728;6.674;2023-03-11T07:23:39;100318.09;;;1.95;100.00
47753;BME280;2038;51.728;6.674;2023-03-11T07:26:11;100320.59;;;1.95;100.00
47753;BME280;2038;51.728;6.674;2023-03-11T07:28:39;100322.38;;;1.96;100.00
47753;BME280;2038;51.728;6.674;2023-03-11T07:31:10;100322.47;;;2.06;100.00
47753;BME280;2038;51.728;6.674;2023-03-11T07:33:39;100323.50;;;2.08;100.00
47753;BME280;2038;51.728;6.674;2023-03-11T07:36:11;100328.19;;;2.13;100.00
47753;BME280;2038;51.728;6.674;2023-03-11T07:38:40;100332.78;;;2.09;100.00
47753;BME280;2038;51.728;6.674;2023-03-11T07:41:07;100339.56;;;2.18;100.00
47753;BME280;2038;51.728;6.674;2023-03-11T07:43:36;100345.66;;;2.12;100.00
47753;BME280;2038;51.728;6.674;2023-03-11T07:46:06;100342.34;;;2.21;100.00
47753;BME280;2038;51.728;6.674;2023-03-11T07:48:37;100343.97;;;2.21;100.00
47753;BME280;2038;51.728;6.674;2023-03-11T07:51:06;100352.28;;;2.20;100.00
47753;BME280;2038;51.728;6.674;2023-03-11T07:53:36;100353.91;;;2.38;100.00
47753;BME280;2038;51.728;6.674;2023-03-11T07:56:03;100357.47;;;2.40;100.00
47753;BME280;2038;51.728;6.674;2023-03-11T07:58:30;100360.25;;;2.43;100.00
47753;BME280;2038;51.728;6.674;2023-03-11T08:01:01;100366.19;;;2.44;100.00
47753;BME280;2038;51.728;6.674;2023-03-11T08:03:33;100368.53;;;2.42;100.00
47753;BME280;2038;51.728;6.674;2023-03-11T08:05:59;100369.69;;;2.46;100.00
47753;BME280;2038;51.728;6.674;2023-03-11T08:08:26;100363.47;;;2.51;100.00
47753;BME280;2038;51.728;6.674;2023-03-11T08:10:53;100367.03;;;2.53;100.00
47753;BME280;2038;51.728;6.674;2023-03-11T08:13:19;100361.78;;;2.60;100.00
47753;BME280;2038;51.728;6.674;2023-03-11T08:15:46;100364.72;;;2.64;100.00
47753;BME280;2038;51.728;6.674;2023-03-11T08:18:12;100367.97;;;2.63;100.00
47753;BME280;2038;51.728;6.674;2023-03-11T08:20:40;100376.06;;;2.69;100.00
47753;BME280;2038;51.728;6.674;2023-03-11T08:23:06;100373.97;;;2.93;100.00
47753;BME280;2038;51.728;6.674;2023-03-11T08:25:32;100375.88;;;2.95;100.00
47753;BME280;2038;51.728;6.674;2023-03-11T08:27:58;100382.31;;;3.02;100.00
47753;BME280;2038;51.728;6.674;2023-03-11T08:30:24;100379.81;;;3.02;100.00
47753;BME280;2038;51.728;6.674;2023-03-11T08:32:51;100388.16;;;3.11;100.00
47753;BME280;2038;51.728;6.674;2023-03-11T08:35:17;100393.28;;;3.21;100.00
47753;BME280;2038;51.728;6.674;2023-03-11T08:37:43;100388.28;;;3.31;100.00
47753;BME280;2038;51.728;6.674;2023-03-11T08:40:10;100394.88;;;3.39;100.00
47753;BME280;2038;51.728;6.674;2023-03-11T08:42:37;100385.97;;;3.43;100.00
47753;BME280;2038;51.728;6.674;2023-03-11T08:45:03;100391.88;;;3.43;100.00
47753;BME280;2038;51.728;6.674;2023-03-11T08:47:34;100401.38;;;3.56;100.00
47753;BME280;2038;51.728;6.674;2023-03-11T08:50:02;100399.63;;;3.55;100.00
47753;BME280;2038;51.728;6.674;2023-03-11T08:52:30;100396.09;;;3.53;100.00
47753;BME280;2038;51.728;6.674;2023-03-11T08:54:56;100396.34;;;3.56;100.00
47753;BME280;2038;51.728;6.674;2023-03-11T08:57:22;100391.16;;;3.54;100.00
47753;BME280;2038;51.728;6.674;2023-03-11T08:59:49;100389.78;;;3.58;100.00
47753;BME280;2038;51.728;6.674;2023-03-11T09:02:15;100398.16;;;3.67;100.00
47753;BME280;2038;51.728;6.674;2023-03-11T09:04:41;100397.19;;;3.75;100.00
47753;BME280;2038;51.728;6.674;2023-03-11T09:07:09;100400.72;;;3.77;100.00
47753;BME280;2038;51.728;6.674;2023-03-11T09:09:36;100403.75;;;3.73;100.00
47753;BME280;2038;51.728;6.674;2023-03-11T09:12:02;100408.28;;;3.77;100.00
47753;BME280;2038;51.728;6.674;2023-03-11T09:14:29;100408.94;;;3.85;100.00
47753;BME280;2038;51.728;6.674;2023-03-11T09:16:55;100413.00;;;3.93;99.93
47753;BME280;2038;51.728;6.674;2023-03-11T09:19:21;100415.63;;;3.94;99.61
47753;BME280;2038;51.728;6.674;2023-03-11T09:21:48;100415.41;;;4.01;98.58
47753;BME280;2038;51.728;6.674;2023-03-11T09:24:14;100426.50;;;4.03;97.95
47753;BME280;2038;51.728;6.674;2023-03-11T09:26:40;100424.88;;;4.04;97.82
47753;BME280;2038;51.728;6.674;2023-03-11T09:29:06;100424.38;;;4.08;97.95
47753;BME280;2038;51.728;6.674;2023-03-11T09:31:32;100433.09;;;4.11;98.91
47753;BME280;2038;51.728;6.674;2023-03-11T09:33:59;100425.44;;;4.20;98.10
47753;BME280;2038;51.728;6.674;2023-03-11T09:36:25;100429.72;;;4.21;96.01
47753;BME280;2038;51.728;6.674;2023-03-11T09:38:51;100419.16;;;4.25;95.09
47753;BME280;2038;51.728;6.674;2023-03-11T09:41:38;100427.34;;;4.33;95.31
47753;BME280;2038;51.728;6.674;2023-03-11T09:44:11;100425.34;;;4.39;94.76
47753;BME280;2038;51.728;6.674;2023-03-11T09:50:00;100444.13;;;4.42;91.77
47753;BME280;2038;51.728;6.674;2023-03-11T09:53:11;100451.59;;;4.51;89.32
47753;BME280;2038;51.728;6.674;2023-03-11T09:55:48;100458.66;;;4.55;89.02
47753;BME280;2038;51.728;6.674;2023-03-11T09:58:47;100458.91;;;4.48;88.28
47753;BME280;2038;51.728;6.674;2023-03-11T10:06:47;100454.50;;;4.45;91.18
47753;BME280;2038;51.728;6.674;2023-03-11T10:09:38;100459.19;;;4.61;89.50
47753;BME280;2038;51.728;6.674;2023-03-11T10:15:54;100462.47;;;4.80;85.69
47753;BME280;2038;51.728;6.674;2023-03-11T10:18:54;100455.94;;;4.92;88.25
47753;BME280;2038;51.728;6.674;2023-03-11T10:27:27;100440.53;;;4.89;88.50
47753;BME280;2038;51.728;6.674;2023-03-11T10:30:22;100446.44;;;4.90;89.37
47753;BME280;2038;51.728;6.674;2023-03-11T10:32:58;100463.75;;;4.85;89.36
47753;BME280;2038;51.728;6.674;2023-03-11T10:35:35;100467.00;;;4.94;88.54
47753;BME280;2038;51.728;6.674;2023-03-11T10:38:16;100472.84;;;4.93;87.89
47753;BME280;2038;51.728;6.674;2023-03-11T10:41:04;100466.13;;;4.73;86.88
47753;BME280;2038;51.728;6.674;2023-03-11T10:43:53;100473.97;;;4.77;87.11
47753;BME280;2038;51.728;6.674;2023-03-11T10:46:27;100471.16;;;4.73;87.30
47753;BME280;2038;51.728;6.674;2023-03-11T10:48:54;100464.25;;;4.81;87.84
47753;BME280;2038;51.728;6.674;2023-03-11T10:51:22;100469.31;;;4.81;87.43
47753;BME280;2038;51.728;6.674;2023-03-11T10:53:54;100473.97;;;4.77;88.43
47753;BME280;2038;51.728;6.674;2023-03-11T10:56:34;100466.38;;;4.87;89.87
47753;BME280;2038;51.728;6.674;2023-03-11T10:59:05;100457.31;;;4.99;90.17
47753;BME280;2038;51.728;6.674;2023-03-11T11:02:28;100465.28;;;4.93;87.79
47753;BME280;2038;51.728;6.674;2023-03-11T11:05:33;100461.34;;;5.07;89.50
47753;BME280;2038;51.728;6.674;2023-03-11T11:08:12;100456.53;;;5.20;91.34
47753;BME280;2038;51.728;6.674;2023-03-11T11:10:53;100457.16;;;5.28;90.24
47753;BME280;2038;51.728;6.674;2023-03-11T11:13:24;100460.53;;;5.38;89.65
47753;BME280;2038;51.728;6.674;2023-03-11T11:15:56;100462.06;;;5.36;89.36
47753;BME280;2038;51.728;6.674;2023-03-11T11:21:16;100470.75;;;5.50;89.35
47753;BME280;2038;51.728;6.674;2023-03-11T11:24:24;100459.66;;;5.48;89.79
47753;BME280;2038;51.728;6.674;2023-03-11T11:27:18;100464.31;;;5.53;87.79
47753;BME280;2038;51.728;6.674;2023-03-11T11:29:47;100473.16;;;5.48;88.78
47753;BME280;2038;51.728;6.674;2023-03-11T11:32:35;100469.63;;;5.46;87.44
47753;BME280;2038;51.728;6.674;2023-03-11T11:35:05;100471.13;;;5.54;89.27
47753;BME280;2038;51.728;6.674;2023-03-11T11:37:41;100464.84;;;5.49;86.79
47753;BME280;2038;51.728;6.674;2023-03-11T11:42:50;100458.63;;;5.56;87.72
47753;BME280;2038;51.728;6.674;2023-03-11T11:45:34;100459.88;;;5.61;85.63
47753;BME280;2038;51.728;6.674;2023-03-11T11:51:20;100460.59;;;5.70;89.26
47753;BME280;2038;51.728;6.674;2023-03-11T11:56:23;100462.41;;;5.61;86.11
47753;BME280;2038;51.728;6.674;2023-03-11T11:58:50;100469.72;;;5.68;84.97
47753;BME280;2038;51.728;6.674;2023-03-11T12:01:37;100470.44;;;5.77;85.78
47753;BME280;2038;51.728;6.674;2023-03-11T12:07:26;100471.44;;;5.89;83.92
47753;BME280;2038;51.728;6.674;2023-03-11T12:21:58;100466.94;;;6.07;84.70
47753;BME280;2038;51.728;6.674;2023-03-11T12:30:29;100474.22;;;6.14;87.67
47753;BME280;2038;51.728;6.674;2023-03-11T12:33:09;100474.88;;;6.11;87.77
47753;BME280;2038;51.728;6.674;2023-03-11T12:35:56;100464.53;;;6.08;89.08
47753;BME280;2038;51.728;6.674;2023-03-11T12:38:39;100487.91;;;6.06;83.94
47753;BME280;2038;51.728;6.674;2023-03-11T12:44:01;100484.59;;;6.17;84.33
47753;BME280;2038;51.728;6.674;2023-03-11T12:49:40;100480.59;;;6.31;81.48
47753;BME280;2038;51.728;6.674;2023-03-11T13:00:25;100481.84;;;6.36;84.13
47753;BME280;2038;51.728;6.674;2023-03-11T13:09:00;100464.84;;;6.45;83.30
47753;BME280;2038;51.728;6.674;2023-03-11T13:16:41;100459.78;;;6.45;83.81
47753;BME280;2038;51.728;6.674;2023-03-11T13:19:34;100456.22;;;6.43;81.91
47753;BME280;2038;51.728;6.674;2023-03-11T13:22:04;100450.09;;;6.51;82.81
47753;BME280;2038;51.728;6.674;2023-03-11T13:27:02;100450.63;;;6.69;83.65
47753;BME280;2038;51.728;6.674;2023-03-11T13:32:48;100452.78;;;6.86;82.36
47753;BME280;2038;51.728;6.674;2023-03-11T13:36:11;100450.25;;;6.86;77.94
47753;BME280;2038;51.728;6.674;2023-03-11T13:39:05;100452.13;;;6.88;79.13
47753;BME280;2038;51.728;6.674;2023-03-11T13:41:44;100460.59;;;6.89;78.49
47753;BME280;2038;51.728;6.674;2023-03-11T13:46:53;100462.84;;;6.74;78.23
47753;BME280;2038;51.728;6.674;2023-03-11T13:52:50;100460.25;;;6.84;81.47
47753;BME280;2038;51.728;6.674;2023-03-11T14:00:59;100457.31;;;6.90;80.36
47753;BME280;2038;51.728;6.674;2023-03-11T14:03:31;100464.78;;;6.88;79.30
47753;BME280;2038;51.728;6.674;2023-03-11T14:06:06;100467.66;;;6.93;81.57
47753;BME280;2038;51.728;6.674;2023-03-11T14:08:37;100471.22;;;7.06;80.79
47753;BME280;2038;51.728;6.674;2023-03-11T14:13:44;100469.72;;;7.20;81.72
47753;BME280;2038;51.728;6.674;2023-03-11T14:19:03;100473.38;;;7.35;81.60
47753;BME280;2038;51.728;6.674;2023-03-11T14:21:34;100482.19;;;7.40;80.37
47753;BME280;2038;51.728;6.674;2023-03-11T14:24:02;100482.63;;;7.35;77.49
47753;BME280;2038;51.728;6.674;2023-03-11T14:26:31;100489.47;;;7.36;76.21
47753;BME280;2038;51.728;6.674;2023-03-11T14:29:06;100490.91;;;7.44;79.67
47753;BME280;2038;51.728;6.674;2023-03-11T14:31:40;100483.28;;;7.32;78.79
47753;BME280;2038;51.728;6.674;2023-03-11T14:34:15;100484.59;;;7.27;80.73
47753;BME280;2038;51.728;6.674;2023-03-11T14:36:51;100487.44;;;7.20;80.43
47753;BME280;2038;51.728;6.674;2023-03-11T14:39:33;100484.13;;;7.10;79.16
47753;BME280;2038;51.728;6.674;2023-03-11T14:42:09;100487.22;;;7.05;78.91
47753;BME280;2038;51.728;6.674;2023-03-11T14:44:46;100492.34;;;6.95;77.74
47753;BME280;2038;51.728;6.674;2023-03-11T14:47:42;100498.28;;;6.96;76.37
47753;BME280;2038;51.728;6.674;2023-03-11T14:50:20;100500.25;;;6.88;78.24
47753;BME280;2038;51.728;6.674;2023-03-11T14:55:37;100497.78;;;6.78;76.52
47753;BME280;2038;51.728;6.674;2023-03-11T15:01:01;100491.59;;;6.75;76.58
47753;BME280;2038;51.728;6.674;2023-03-11T15:03:38;100491.03;;;6.67;79.07
47753;BME280;2038;51.728;6.674;2023-03-11T15:09:04;100493.44;;;6.66;79.12
47753;BME280;2038;51.728;6.674;2023-03-11T15:14:31;100504.03;;;6.72;75.68
47753;BME280;2038;51.728;6.674;2023-03-11T15:17:24;100502.75;;;6.77;76.75
47753;BME280;2038;51.728;6.674;2023-03-11T15:19:53;100500.84;;;6.74;80.08
47753;BME280;2038;51.728;6.674;2023-03-11T15:22:53;100506.97;;;6.66;76.46
47753;BME280;2038;51.728;6.674;2023-03-11T15:25:26;100503.69;;;6.67;78.36
47753;BME280;2038;51.728;6.674;2023-03-11T15:27:54;100506.44;;;6.70;80.08
47753;BME280;2038;51.728;6.674;2023-03-11T15:30:29;100506.75;;;6.63;79.77
47753;BME280;2038;51.728;6.674;2023-03-11T15:32:56;100501.81;;;6.65;83.19
47753;BME280;2038;51.728;6.674;2023-03-11T15:35:30;100498.91;;;6.60;80.65
47753;BME280;2038;51.728;6.674;2023-03-11T15:38:23;100500.78;;;6.63;78.28
47753;BME280;2038;51.728;6.674;2023-03-11T15:40:58;100506.22;;;6.67;80.00
47753;BME280;2038;51.728;6.674;2023-03-11T15:43:34;100508.34;;;6.73;78.09
47753;BME280;2038;51.728;6.674;2023-03-11T15:46:11;100503.72;;;6.79;77.86
47753;BME280;2038;51.728;6.674;2023-03-11T15:48:37;100504.06;;;6.83;79.03
47753;BME280;2038;51.728;6.674;2023-03-11T15:51:04;100505.19;;;6.87;79.40
47753;BME280;2038;51.728;6.674;2023-03-11T15:53:30;100504.06;;;6.83;77.30
47753;BME280;2038;51.728;6.674;2023-03-11T15:56:02;100503.97;;;6.82;77.55
47753;BME280;2038;51.728;6.674;2023-03-11T15:58:37;100500.91;;;6.86;79.82
47753;BME280;2038;51.728;6.674;2023-03-11T16:01:03;100505.63;;;6.81;77.59
47753;BME280;2038;51.728;6.674;2023-03-11T16:03:30;100506.91;;;6.76;77.05
47753;BME280;2038;51.728;6.674;2023-03-11T16:05:56;100505.16;;;6.75;78.81
47753;BME280;2038;51.728;6.674;2023-03-11T16:08:22;100504.78;;;6.71;79.26
47753;BME280;2038;51.728;6.674;2023-03-11T16:10:48;100511.72;;;6.62;79.34
47753;BME280;2038;51.728;6.674;2023-03-11T16:13:15;100514.78;;;6.57;79.40
47753;BME280;2038;51.728;6.674;2023-03-11T16:15:41;100507.56;;;6.52;80.37
47753;BME280;2038;51.728;6.674;2023-03-11T16:18:09;100500.97;;;6.54;80.33
47753;BME280;2038;51.728;6.674;2023-03-11T16:20:45;100495.69;;;6.51;80.34
47753;BME280;2038;51.728;6.674;2023-03-11T16:23:23;100502.59;;;6.42;78.77
47753;BME280;2038;51.728;6.674;2023-03-11T16:25:54;100508.63;;;6.44;79.05
47753;BME280;2038;51.728;6.674;2023-03-11T16:28:23;100504.16;;;6.51;77.53
47753;BME280;2038;51.728;6.674;2023-03-11T16:30:50;100502.38;;;6.50;80.87
47753;BME280;2038;51.728;6.674;2023-03-11T16:33:16;100503.56;;;6.44;80.38
47753;BME280;2038;51.728;6.674;2023-03-11T16:35:43;100505.22;;;6.43;80.01
47753;BME280;2038;51.728;6.674;2023-03-11T16:38:09;100505.75;;;6.39;80.85
47753;BME280;2038;51.728;6.674;2023-03-11T16:40:35;100496.38;;;6.38;81.18
47753;BME280;2038;51.728;6.674;2023-03-11T16:43:07;100494.50;;;6.36;81.81
47753;BME280;2038;51.728;6.674;2023-03-11T16:45:35;100508.78;;;6.35;81.06
47753;BME280;2038;51.728;6.674;2023-03-11T16:48:02;100499.78;;;6.39;79.99
47753;BME280;2038;51.728;6.674;2023-03-11T16:50:30;100502.22;;;6.37;81.55
47753;BME280;2038;51.728;6.674;2023-03-11T16:52:57;100500.59;;;6.38;82.03
47753;BME280;2038;51.728;6.674;2023-03-11T16:55:25;100507.38;;;6.39;81.84
47753;BME280;2038;51.728;6.674;2023-03-11T16:57:52;100509.69;;;6.36;82.33
47753;BME280;2038;51.728;6.674;2023-03-11T17:00:21;100515.03;;;6.29;83.37
47753;BME280;2038;51.728;6.674;2023-03-11T17:02:47;100513.78;;;6.24;84.21
47753;BME280;2038;51.728;6.674;2023-03-11T17:05:13;100516.84;;;6.20;83.65
47753;BME280;2038;51.728;6.674;2023-03-11T17:07:40;100504.44;;;6.23;85.46
47753;BME280;2038;51.728;6.674;2023-03-11T17:10:07;100505.47;;;6.15;85.58
47753;BME280;2038;51.728;6.674;2023-03-11T17:12:35;100510.28;;;6.11;85.81
47753;BME280;2038;51.728;6.674;2023-03-11T17:15:03;100506.94;;;6.01;86.29
47753;BME280;2038;51.728;6.674;2023-03-11T17:17:31;100510.50;;;5.93;86.33
47753;BME280;2038;51.728;6.674;2023-03-11T17:19:58;100507.72;;;5.80;86.63
47753;BME280;2038;51.728;6.674;2023-03-11T17:22:24;100513.81;;;5.72;87.39
47753;BME280;2038;51.728;6.674;2023-03-11T17:24:50;100513.84;;;5.61;88.58
47753;BME280;2038;51.728;6.674;2023-03-11T17:27:16;100519.78;;;5.52;89.49
47753;BME280;2038;51.728;6.674;2023-03-11T17:29:42;100512.47;;;5.35;90.06
47753;BME280;2038;51.728;6.674;2023-03-11T17:32:09;100520.44;;;5.19;90.82
47753;BME280;2038;51.728;6.674;2023-03-11T17:34:38;100518.69;;;5.08;91.15
47753;BME280;2038;51.728;6.674;2023-03-11T17:37:04;100518.03;;;5.00;90.91
47753;BME280;2038;51.728;6.674;2023-03-11T17:39:30;100521.56;;;4.92;91.19
47753;BME280;2038;51.728;6.674;2023-03-11T17:41:57;100525.09;;;4.84;92.20
47753;BME280;2038;51.728;6.674;2023-03-11T17:44:23;100524.47;;;4.77;92.19
47753;BME280;2038;51.728;6.674;2023-03-11T17:46:49;100522.28;;;4.71;92.38
47753;BME280;2038;51.728;6.674;2023-03-11T17:49:15;100518.47;;;4.66;93.35
47753;BME280;2038;51.728;6.674;2023-03-11T17:51:41;100526.28;;;4.59;93.46
47753;BME280;2038;51.728;6.674;2023-03-11T17:54:08;100526.78;;;4.55;93.77
47753;BME280;2038;51.728;6.674;2023-03-11T17:56:34;100531.44;;;4.50;93.69
47753;BME280;2038;51.728;6.674;2023-03-11T17:59:00;100535.97;;;4.44;93.98
47753;BME280;2038;51.728;6.674;2023-03-11T18:01:27;100534.56;;;4.38;93.84
47753;BME280;2038;51.728;6.674;2023-03-11T18:03:55;100535.94;;;4.34;92.85
47753;BME280;2038;51.728;6.674;2023-03-11T18:06:22;100540.47;;;4.28;93.21
47753;BME280;2038;51.728;6.674;2023-03-11T18:08:48;100538.28;;;4.22;93.97
47753;BME280;2038;51.728;6.674;2023-03-11T18:11:17;100532.59;;;4.15;94.74
47753;BME280;2038;51.728;6.674;2023-03-11T18:13:46;100529.53;;;4.09;95.16
47753;BME280;2038;51.728;6.674;2023-03-11T18:16:30;100525.66;;;3.94;94.59
47753;BME280;2038;51.728;6.674;2023-03-11T18:18:58;100530.59;;;3.92;94.66
47753;BME280;2038;51.728;6.674;2023-03-11T18:21:27;100527.53;;;3.86;94.02
47753;BME280;2038;51.728;6.674;2023-03-11T18:23:57;100530.41;;;3.81;95.02
47753;BME280;2038;51.728;6.674;2023-03-11T18:26:27;100535.94;;;3.76;95.38
47753;BME280;2038;51.728;6.674;2023-03-11T18:28:58;100539.19;;;3.75;95.14
47753;BME280;2038;51.728;6.674;2023-03-11T18:31:26;100536.00;;;3.68;95.48
47753;BME280;2038;51.728;6.674;2023-03-11T18:33:56;100535.84;;;3.66;95.03
47753;BME280;2038;51.728;6.674;2023-03-11T18:36:27;100541.16;;;3.69;95.33
47753;BME280;2038;51.728;6.674;2023-03-11T18:39:00;100542.53;;;3.66;95.14
47753;BME280;2038;51.728;6.674;2023-03-11T18:41:30;100551.59;;;3.64;94.79
47753;BME280;2038;51.728;6.674;2023-03-11T18:43:58;100547.63;;;3.57;95.20
47753;BME280;2038;51.728;6.674;2023-03-11T18:46:27;100558.19;;;3.53;95.57
47753;BME280;2038;51.728;6.674;2023-03-11T18:48:57;100553.91;;;3.52;96.65
47753;BME280;2038;51.728;6.674;2023-03-11T18:51:27;100557.91;;;3.50;96.39
47753;BME280;2038;51.728;6.674;2023-03-11T18:53:55;100561.06;;;3.48;95.49
47753;BME280;2038;51.728;6.674;2023-03-11T18:56:22;100557.69;;;3.39;95.53
47753;BME280;2038;51.728;6.674;2023-03-11T18:58:48;100555.22;;;3.30;97.22
47753;BME280;2038;51.728;6.674;2023-03-11T19:01:16;100550.19;;;3.30;96.49
47753;BME280;2038;51.728;6.674;2023-03-11T19:03:49;100552.72;;;3.30;96.38
47753;BME280;2038;51.728;6.674;2023-03-11T19:06:21;100556.66;;;3.18;97.11
47753;BME280;2038;51.728;6.674;2023-03-11T19:08:48;100549.97;;;3.18;97.76
47753;BME280;2038;51.728;6.674;2023-03-11T19:11:18;100553.13;;;3.16;97.68
47753;BME280;2038;51.728;6.674;2023-03-11T19:13:46;100564.81;;;3.15;97.83
47753;BME280;2038;51.728;6.674;2023-03-11T19:16:13;100561.41;;;3.15;98.22
47753;BME280;2038;51.728;6.674;2023-03-11T19:18:41;100552.44;;;3.08;98.05
47753;BME280;2038;51.728;6.674;2023-03-11T19:21:10;100563.22;;;3.07;98.12
47753;BME280;2038;51.728;6.674;2023-03-11T19:23:37;100558.34;;;3.09;98.61
47753;BME280;2038;51.728;6.674;2023-03-11T19:26:04;100561.91;;;3.02;99.35
47753;BME280;2038;51.728;6.674;2023-03-11T19:28:30;100553.53;;;2.93;100.00
47753;BME280;2038;51.728;6.674;2023-03-11T19:30:58;100559.78;;;2.88;100.00
47753;BME280;2038;51.728;6.674;2023-03-11T19:33:25;100553.91;;;2.79;100.00
47753;BME280;2038;51.728;6.674;2023-03-11T19:35:56;100552.13;;;2.78;100.00
47753;BME280;2038;51.728;6.674;2023-03-11T19:38:24;100559.69;;;2.69;100.00